Time;durP1;ratioP1;P1;durP2;ratioP2;P2;SDS_P1;SDS_P2;PMS_P1;PMS_P2;Temp;Humidity;BMP_temperature;BMP_pressure;BME280_temperature;BME280_humidity;BME280_pressure;Samples;Min_cycle;Max_cycle;Signal;HPM_P1;HPM_P2
2021/08/14 00:01:21;;;;;;;87.27;77.93;;;22.50;99.90;;;;;;5035132;28;20885;-86
2021/08/14 00:03:48;;;;;;;36.00;32.27;;;22.50;99.90;;;;;;5036069;28;20864;-86
2021/08/14 00:06:16;;;;;;;89.37;81.23;;;22.40;99.90;;;;;;5046674;28;20515;-86
2021/08/14 00:08:43;;;;;;;80.73;72.63;;;22.40;99.90;;;;;;5052594;28;20491;-86
2021/08/14 00:11:10;;;;;;;77.33;68.93;;;22.30;99.90;;;;;;5049808;28;20459;-86
2021/08/14 00:13:37;;;;;;;81.20;67.93;;;22.30;99.90;;;;;;5049556;28;20476;-86
2021/08/14 00:16:05;;;;;;;75.23;68.10;;;22.30;99.90;;;;;;5050219;28;20506;-86
2021/08/14 00:18:31;;;;;;;65.70;57.80;;;22.30;99.90;;;;;;5048090;28;21015;-85
2021/08/14 00:20:58;;;;;;;80.03;71.20;;;22.30;99.90;;;;;;5044983;28;20449;-83
2021/08/14 00:23:24;;;;;;;89.70;75.77;;;22.30;99.90;;;;;;5042087;28;20561;-83
2021/08/14 00:25:51;;;;;;;31.93;28.53;;;22.30;99.90;;;;;;5051929;28;20510;-83
2021/08/14 00:28:18;;;;;;;35.77;29.77;;;22.20;99.90;;;;;;5049992;28;20453;-84
2021/08/14 00:30:45;;;;;;;86.83;71.40;;;22.10;99.90;;;;;;5038303;28;20449;-83
2021/08/14 00:33:12;;;;;;;86.37;77.97;;;22.20;99.90;;;;;;5042996;28;20473;-83
2021/08/14 00:35:38;;;;;;;81.13;71.93;;;22.20;99.90;;;;;;5046289;28;20535;-83
2021/08/14 00:38:05;;;;;;;93.43;80.03;;;22.10;99.90;;;;;;5051875;28;20544;-85
2021/08/14 00:40:31;;;;;;;81.70;73.37;;;22.00;99.90;;;;;;5037316;28;20481;-85
2021/08/14 00:42:58;;;;;;;80.37;72.30;;;22.00;99.90;;;;;;5039085;28;20544;-84
2021/08/14 00:45:25;;;;;;;83.60;73.37;;;22.00;99.90;;;;;;5043706;28;20495;-84
2021/08/14 00:47:53;;;;;;;88.67;79.83;;;22.00;99.90;;;;;;5038087;28;20488;-84
2021/08/14 00:50:19;;;;;;;80.93;72.20;;;22.10;99.90;;;;;;5049002;28;20448;-84
2021/08/14 00:52:46;;;;;;;73.77;65.97;;;22.10;99.90;;;;;;5038200;28;20471;-84
2021/08/14 00:55:13;;;;;;;80.10;71.37;;;22.00;99.90;;;;;;5043104;28;20473;-84
2021/08/14 00:57:41;;;;;;;80.53;72.23;;;22.00;99.90;;;;;;5045275;28;20498;-84
2021/08/14 01:00:08;;;;;;;79.80;65.97;;;22.00;99.90;;;;;;5035858;28;20953;-84
2021/08/14 01:02:35;;;;;;;79.97;65.17;;;22.00;99.90;;;;;;5048276;28;20507;-84
2021/08/14 01:05:03;;;;;;;87.23;78.40;;;21.90;99.90;;;;;;5040435;28;20475;-84
2021/08/14 01:07:30;;;;;;;34.03;30.60;;;21.90;99.90;;;;;;5045285;28;20568;-85
2021/08/14 01:09:56;;;;;;;89.30;80.13;;;21.90;99.90;;;;;;5049845;28;20444;-84
2021/08/14 01:12:23;;;;;;;41.73;37.70;;;21.90;99.90;;;;;;5035473;28;20497;-84
2021/08/14 01:14:50;;;;;;;86.57;77.83;;;21.80;99.90;;;;;;5046876;28;20503;-86
2021/08/14 01:17:18;;;;;;;46.23;41.73;;;21.80;99.90;;;;;;5042398;28;20445;-84
2021/08/14 01:19:46;;;;;;;51.23;46.53;;;21.80;99.90;;;;;;5041500;28;20519;-84
2021/08/14 01:22:15;;;;;;;53.63;48.53;;;21.80;99.90;;;;;;5052706;28;20497;-85
2021/08/14 01:24:43;;;;;;;46.43;42.03;;;21.70;99.90;;;;;;5044349;28;20492;-85
2021/08/14 01:27:11;;;;;;;25.87;16.87;;;21.70;99.90;;;;;;5056294;28;20466;-85
2021/08/14 01:29:39;;;;;;;37.47;33.77;;;21.60;99.90;;;;;;5042701;28;20540;-85
2021/08/14 01:32:06;;;;;;;85.70;77.13;;;21.50;99.90;;;;;;5052386;28;20452;-83
2021/08/14 01:34:33;;;;;;;86.47;67.93;;;21.40;99.90;;;;;;5040216;28;20597;-83
2021/08/14 01:37:00;;;;;;;79.03;70.53;;;21.20;99.90;;;;;;5047960;28;20452;-83
2021/08/14 01:39:27;;;;;;;74.57;66.37;;;21.20;99.90;;;;;;5040364;28;20494;-84
2021/08/14 01:41:59;;;;;;;67.57;60.23;;;21.10;99.90;;;;;;5053473;28;20513;-84
2021/08/14 01:44:28;;;;;;;79.20;70.20;;;21.10;99.90;;;;;;5051168;28;20497;-84
2021/08/14 01:46:55;;;;;;;32.77;25.10;;;21.10;99.90;;;;;;5052793;28;20542;-84
2021/08/14 01:49:22;;;;;;;29.87;21.17;;;21.00;99.90;;;;;;5053277;28;20480;-83
2021/08/14 01:51:49;;;;;;;80.67;69.77;;;20.90;99.90;;;;;;5052434;28;20490;-84
2021/08/14 01:54:16;;;;;;;83.73;70.30;;;20.80;99.90;;;;;;5051145;28;20507;-84
2021/08/14 01:56:43;;;;;;;74.40;67.27;;;20.70;99.90;;;;;;5052087;28;20490;-83
2021/08/14 01:59:10;;;;;;;66.73;59.33;;;20.70;99.90;;;;;;5046415;28;20484;-82
2021/08/14 02:01:38;;;;;;;69.23;62.20;;;20.50;99.90;;;;;;5035597;28;20544;-83
2021/08/14 02:04:06;;;;;;;57.93;51.73;;;20.40;99.90;;;;;;5051554;28;20484;-83
2021/08/14 02:06:33;;;;;;;59.33;50.87;;;20.40;99.90;;;;;;5038805;28;20507;-83
2021/08/14 02:09:00;;;;;;;62.30;52.43;;;20.40;99.90;;;;;;5055243;28;20478;-83
2021/08/14 02:11:28;;;;;;;58.77;52.30;;;20.40;99.90;;;;;;5055017;28;20620;-83
2021/08/14 02:13:56;;;;;;;61.30;54.70;;;20.40;99.90;;;;;;5040045;28;20535;-83
2021/08/14 02:16:23;;;;;;;59.67;50.23;;;20.40;99.90;;;;;;5038081;28;20453;-83
2021/08/14 02:18:52;;;;;;;77.77;57.60;;;20.30;99.90;;;;;;5048834;28;20446;-83
2021/08/14 02:21:18;;;;;;;63.97;50.97;;;20.30;99.90;;;;;;5045366;28;20528;-83
2021/08/14 02:23:45;;;;;;;55.60;48.93;;;20.20;99.90;;;;;;5040771;28;20503;-83
2021/08/14 02:26:11;;;;;;;58.93;52.43;;;20.20;99.90;;;;;;5052041;28;20526;-83
2021/08/14 02:28:38;;;;;;;64.43;45.57;;;20.20;99.90;;;;;;5055009;28;20503;-83
2021/08/14 02:31:06;;;;;;;58.70;51.43;;;20.10;99.90;;;;;;5046492;28;20480;-82
2021/08/14 02:33:33;;;;;;;64.03;41.47;;;20.10;99.90;;;;;;5046613;28;20530;-82
2021/08/14 02:36:02;;;;;;;63.00;45.27;;;20.10;99.90;;;;;;5038742;28;20543;-83
2021/08/14 02:38:28;;;;;;;54.17;42.43;;;20.10;99.90;;;;;;5051425;28;20453;-83
2021/08/14 02:40:55;;;;;;;54.80;44.87;;;20.10;99.90;;;;;;5041861;28;20440;-83
2021/08/14 02:43:22;;;;;;;52.47;34.50;;;20.20;99.90;;;;;;5043979;28;20477;-82
2021/08/14 02:45:49;;;;;;;49.03;40.90;;;20.20;99.90;;;;;;5049066;28;20494;-82
2021/08/14 02:48:15;;;;;;;57.77;46.57;;;20.30;99.90;;;;;;5038193;28;20847;-82
2021/08/14 02:50:43;;;;;;;57.57;43.17;;;20.30;99.90;;;;;;5048918;28;20979;-82
2021/08/14 02:53:10;;;;;;;54.50;48.70;;;20.40;99.90;;;;;;5043057;28;20519;-83
2021/08/14 02:55:37;;;;;;;62.07;43.57;;;20.40;99.90;;;;;;5041934;28;20449;-83
2021/08/14 02:58:04;;;;;;;56.13;45.10;;;20.40;99.90;;;;;;5050374;28;20590;-83
2021/08/14 03:00:30;;;;;;;61.77;46.10;;;20.40;99.90;;;;;;5037696;28;20527;-83
2021/08/14 03:02:57;;;;;;;59.00;52.07;;;20.40;99.90;;;;;;5047249;28;20488;-83
2021/08/14 03:05:24;;;;;;;50.50;43.07;;;20.40;99.90;;;;;;5045635;28;20488;-82
2021/08/14 03:07:51;;;;;;;52.00;44.57;;;20.40;99.90;;;;;;5047555;28;20522;-83
2021/08/14 03:10:19;;;;;;;52.90;47.20;;;20.40;99.90;;;;;;5054410;28;20527;-83
2021/08/14 03:12:45;;;;;;;55.43;49.17;;;20.40;99.90;;;;;;5048352;28;20453;-83
2021/08/14 03:15:13;;;;;;;53.87;47.10;;;20.40;99.90;;;;;;5034555;28;20959;-83
2021/08/14 03:17:39;;;;;;;57.10;51.20;;;20.40;99.90;;;;;;5046795;28;20487;-83
2021/08/14 03:20:08;;;;;;;54.53;43.07;;;20.40;99.90;;;;;;5037146;28;20446;-83
2021/08/14 03:22:34;;;;;;;54.67;44.03;;;20.50;99.90;;;;;;5049345;28;20485;-84
2021/08/14 03:25:01;;;;;;;51.33;35.50;;;20.50;99.90;;;;;;5041718;28;20543;-83
2021/08/14 03:27:29;;;;;;;63.87;52.60;;;20.50;99.90;;;;;;5042064;28;20503;-82
2021/08/14 03:29:55;;;;;;;52.70;44.57;;;20.50;99.90;;;;;;5052216;28;20453;-83
2021/08/14 03:32:22;;;;;;;56.23;44.87;;;20.50;99.90;;;;;;5050778;28;20535;-83
2021/08/14 03:34:49;;;;;;;54.87;43.90;;;20.60;99.90;;;;;;5039902;28;20558;-84
2021/08/14 03:37:15;;;;;;;56.23;44.90;;;20.50;99.90;;;;;;5043251;28;20485;-84
2021/08/14 03:39:42;;;;;;;52.73;38.33;;;20.50;99.90;;;;;;5046455;28;20487;-86
2021/08/14 03:42:08;;;;;;;52.03;39.17;;;20.50;99.90;;;;;;5035904;28;20477;-86
2021/08/14 03:44:36;;;;;;;69.53;46.90;;;20.50;99.90;;;;;;5049504;28;20487;-86
2021/08/14 03:47:03;;;;;;;60.13;48.00;;;20.60;99.90;;;;;;5041961;28;20472;-85
2021/08/14 03:49:30;;;;;;;54.40;45.47;;;20.50;99.90;;;;;;5042020;28;20445;-85
2021/08/14 03:51:56;;;;;;;61.63;42.40;;;20.50;99.90;;;;;;5048882;28;20480;-85
2021/08/14 03:54:23;;;;;;;55.73;43.13;;;20.50;99.90;;;;;;5036786;28;20890;-84
2021/08/14 03:56:52;;;;;;;54.30;42.73;;;20.40;99.90;;;;;;5046858;28;20998;-86
2021/08/14 03:59:19;;;;;;;56.50;45.10;;;20.50;99.90;;;;;;5043394;28;20449;-85
2021/08/14 04:01:47;;;;;;;56.87;50.57;;;20.50;99.90;;;;;;5039566;28;20476;-86
2021/08/14 04:04:13;;;;;;;54.37;43.97;;;20.50;99.90;;;;;;5049748;28;20472;-86
2021/08/14 04:06:40;;;;;;;53.80;38.77;;;20.50;99.90;;;;;;5038340;28;20521;-84
2021/08/14 04:09:06;;;;;;;56.20;50.37;;;20.50;99.90;;;;;;5052499;28;20532;-84
2021/08/14 04:11:33;;;;;;;57.63;45.83;;;20.60;99.90;;;;;;5052965;28;20440;-86
2021/08/14 04:13:59;;;;;;;58.93;45.77;;;20.60;99.90;;;;;;5053071;28;20480;-86
2021/08/14 04:16:26;;;;;;;59.73;47.13;;;20.60;99.90;;;;;;5051792;28;20872;-85
2021/08/14 04:18:54;;;;;;;58.13;44.13;;;20.60;99.90;;;;;;5047028;28;20959;-85
2021/08/14 04:21:20;;;;;;;57.27;45.53;;;20.60;99.90;;;;;;5043890;28;21008;-83
2021/08/14 04:23:47;;;;;;;54.97;42.73;;;20.60;99.90;;;;;;5038983;28;20986;-84
2021/08/14 04:26:13;;;;;;;52.70;46.67;;;20.50;99.90;;;;;;5050037;28;20852;-84
2021/08/14 04:28:40;;;;;;;64.33;46.90;;;20.50;99.90;;;;;;5037879;28;20483;-84
2021/08/14 04:31:06;;;;;;;55.03;41.37;;;20.40;99.90;;;;;;5052640;28;20544;-84
2021/08/14 04:33:33;;;;;;;63.57;48.57;;;20.40;99.90;;;;;;5052174;28;20472;-84
2021/08/14 04:36:01;;;;;;;51.70;40.83;;;20.30;99.90;;;;;;5036295;28;20893;-84
2021/08/14 04:38:27;;;;;;;61.80;43.73;;;20.30;99.90;;;;;;5048840;28;20883;-84
2021/08/14 04:40:54;;;;;;;57.30;39.97;;;20.20;99.90;;;;;;5038952;28;20816;-84
2021/08/14 04:43:21;;;;;;;50.33;37.27;;;20.20;99.90;;;;;;5041618;28;21018;-84
2021/08/14 04:45:47;;;;;;;51.90;40.83;;;20.10;99.90;;;;;;5046926;28;20526;-84
2021/08/14 04:48:14;;;;;;;54.50;42.00;;;20.10;99.90;;;;;;5036012;28;20515;-84
2021/08/14 04:50:40;;;;;;;50.93;39.53;;;20.10;99.90;;;;;;5048595;28;20449;-84
2021/08/14 04:53:08;;;;;;;50.43;37.47;;;20.10;99.90;;;;;;5044624;28;20487;-84
2021/08/14 04:55:35;;;;;;;51.57;38.23;;;20.10;99.90;;;;;;5044643;28;20449;-85
2021/08/14 04:58:02;;;;;;;51.33;38.07;;;20.20;99.90;;;;;;5053313;28;21016;-83
2021/08/14 05:00:28;;;;;;;52.97;41.53;;;20.20;99.90;;;;;;5038403;28;20479;-83
2021/08/14 05:02:55;;;;;;;52.67;39.67;;;20.20;99.90;;;;;;5051856;28;20483;-84
2021/08/14 05:05:21;;;;;;;54.67;48.07;;;20.30;99.90;;;;;;5040235;28;20942;-83
2021/08/14 05:07:48;;;;;;;58.57;40.30;;;20.30;99.90;;;;;;5055970;28;20464;-84
2021/08/14 05:10:16;;;;;;;55.47;42.40;;;20.40;99.90;;;;;;5056469;28;20530;-83
2021/08/14 05:12:43;;;;;;;60.13;46.30;;;20.40;99.90;;;;;;5044871;28;20449;-85
2021/08/14 05:15:10;;;;;;;54.57;41.87;;;20.40;99.90;;;;;;5043095;28;20548;-85
2021/08/14 05:17:36;;;;;;;55.13;47.30;;;20.40;99.90;;;;;;5052801;28;20484;-82
2021/08/14 05:20:05;;;;;;;58.47;38.77;;;20.40;99.90;;;;;;5042270;28;21005;-82
2021/08/14 05:22:31;;;;;;;55.80;46.73;;;20.50;99.90;;;;;;5045972;28;20513;-83
2021/08/14 05:24:58;;;;;;;56.60;44.83;;;20.50;99.90;;;;;;5049443;28;20535;-82
2021/08/14 05:27:26;;;;;;;56.37;44.97;;;20.50;99.90;;;;;;5055870;28;20479;-82
2021/08/14 05:29:52;;;;;;;56.57;44.33;;;20.60;99.90;;;;;;5055934;28;20858;-82
2021/08/14 05:32:19;;;;;;;63.27;50.50;;;20.70;99.90;;;;;;5055709;28;20491;-82
2021/08/14 05:34:46;;;;;;;59.57;44.67;;;20.70;99.90;;;;;;5055560;28;20476;-82
2021/08/14 05:37:12;;;;;;;61.53;54.90;;;20.80;99.90;;;;;;5055913;28;20444;-82
2021/08/14 05:39:39;;;;;;;66.77;59.93;;;20.90;99.90;;;;;;5055676;28;20526;-81
2021/08/14 05:42:06;;;;;;;72.40;65.33;;;21.10;99.90;;;;;;5055583;28;20448;-81
2021/08/14 05:44:34;;;;;;;76.20;67.90;;;21.10;99.90;;;;;;5055548;28;20471;-82
2021/08/14 05:47:00;;;;;;;30.63;22.97;;;21.30;99.90;;;;;;5055572;28;20868;-82
2021/08/14 05:49:27;;;;;;;31.00;23.70;;;21.40;99.90;;;;;;5055610;28;20514;-83
2021/08/14 05:51:54;;;;;;;32.23;27.20;;;21.50;99.90;;;;;;5055737;28;20527;-83
2021/08/14 05:54:20;;;;;;;30.50;21.77;;;21.60;99.90;;;;;;5055396;28;20902;-86
2021/08/14 05:56:47;;;;;;;49.03;44.13;;;21.70;99.90;;;;;;5055360;28;20818;-86
2021/08/14 05:59:14;;;;;;;29.43;23.20;;;22.00;99.90;;;;;;5055231;28;20491;-86
2021/08/14 06:01:41;;;;;;;118.27;106.60;;;22.20;99.90;;;;;;5055421;28;20509;-84
2021/08/14 06:04:08;;;;;;;133.47;118.97;;;22.40;99.90;;;;;;5054667;28;20487;-83
2021/08/14 06:06:35;;;;;;;124.87;112.77;;;22.80;99.90;;;;;;5055315;28;20472;-83
2021/08/14 06:09:01;;;;;;;75.63;68.77;;;23.10;99.90;;;;;;5055202;28;20448;-82
2021/08/14 06:11:29;;;;;;;98.13;89.97;;;23.50;99.90;;;;;;5055576;28;20468;-85
2021/08/14 06:13:55;;;;;;;273.30;257.10;;;23.80;99.90;;;;;;5054848;28;20873;-85
2021/08/14 06:16:22;;;;;;;514.33;478.73;;;24.20;99.90;;;;;;5037049;28;20524;-85
2021/08/14 06:18:50;;;;;;;627.43;586.57;;;24.60;99.90;;;;;;5035990;28;20457;-84
2021/08/14 06:21:16;;;;;;;789.13;738.10;;;25.10;99.90;;;;;;5035150;28;20547;-84
2021/08/14 06:23:43;;;;;;;955.77;876.40;;;25.70;99.90;;;;;;5036633;28;20480;-88
2021/08/14 06:26:09;;;;;;;1101.63;989.50;;;26.00;99.90;;;;;;5044069;28;20859;-87
2021/08/14 06:28:36;;;;;;;1080.83;975.77;;;26.00;99.90;;;;;;5046025;28;20530;-86
2021/08/14 06:31:03;;;;;;;1113.53;995.10;;;26.00;99.90;;;;;;5055254;28;20535;-85
2021/08/14 06:33:29;;;;;;;1173.70;999.90;;;25.90;99.90;;;;;;5039446;28;20496;-87
2021/08/14 06:36:01;;;;;;;1263.73;999.90;;;25.90;99.90;;;;;;5044372;28;21015;-86
2021/08/14 06:38:28;;;;;;;1345.63;999.90;;;25.80;99.90;;;;;;5050821;28;20453;-85
2021/08/14 06:40:54;;;;;;;1192.23;995.73;;;25.70;99.90;;;;;;5046928;28;20444;-86
2021/08/14 06:43:21;;;;;;;1263.10;999.90;;;25.60;99.90;;;;;;5051125;28;20528;-85
2021/08/14 06:45:48;;;;;;;1123.50;995.77;;;25.50;99.90;;;;;;5053485;28;20510;-87
2021/08/14 06:48:14;;;;;;;1078.43;962.60;;;25.50;99.90;;;;;;5050568;28;20449;-86
2021/08/14 06:50:41;;;;;;;1151.43;999.90;;;25.60;99.90;;;;;;5043947;28;20476;-85
2021/08/14 06:53:09;;;;;;;1246.30;999.90;;;25.80;99.90;;;;;;5045508;28;20511;-85
2021/08/14 06:55:35;;;;;;;1345.77;999.90;;;26.20;99.90;;;;;;5045822;28;20513;-86
2021/08/14 06:58:02;;;;;;;1967.53;999.90;;;26.40;99.90;;;;;;5044955;28;20979;-86
2021/08/14 07:00:28;;;;;;;1999.90;999.90;;;26.60;99.90;;;;;;5053780;28;20542;-87
2021/08/14 07:02:55;;;;;;;1999.90;950.13;;;26.90;99.90;;;;;;5054548;28;20448;-86
2021/08/14 07:05:22;;;;;;;1999.90;432.67;;;27.30;99.90;;;;;;5054785;28;20476;-87
2021/08/14 07:07:48;;;;;;;1999.90;999.90;;;27.40;99.90;;;;;;5053854;28;20510;-88
2021/08/14 07:10:16;;;;;;;1999.90;999.90;;;27.60;99.90;;;;;;5055177;28;20455;-91
2021/08/14 07:12:44;;;;;;;1999.90;999.90;;;27.70;99.90;;;;;;5054906;28;20854;-88
2021/08/14 07:15:12;;;;;;;1999.90;999.90;;;28.00;99.90;;;;;;5045781;28;20487;-85
2021/08/14 07:17:39;;;;;;;1999.90;999.90;;;28.20;99.90;;;;;;5033992;28;20457;-84
2021/08/14 07:20:06;;;;;;;1999.90;999.90;;;28.30;99.90;;;;;;5033914;28;20449;-84
2021/08/14 07:22:35;;;;;;;1999.90;999.90;;;28.30;99.90;;;;;;5034467;28;20507;-84
2021/08/14 07:25:05;;;;;;;1999.90;999.90;;;28.20;99.90;;;;;;5041412;28;20454;-85
2021/08/14 07:27:33;;;;;;;1999.90;999.90;;;28.40;99.90;;;;;;5054055;28;20487;-85
2021/08/14 07:30:00;;;;;;;1999.90;999.90;;;28.50;99.90;;;;;;5053457;28;20819;-85
2021/08/14 07:32:26;;;;;;;1999.90;999.90;;;28.60;99.90;;;;;;5053759;28;20877;-85
2021/08/14 07:34:53;;;;;;;1999.90;999.90;;;28.70;99.90;;;;;;5053843;28;20575;-85
2021/08/14 07:37:20;;;;;;;1999.90;999.90;;;28.80;99.90;;;;;;5053866;28;20459;-85
2021/08/14 07:39:46;;;;;;;1999.90;999.90;;;28.70;99.90;;;;;;5054198;28;20931;-86
2021/08/14 07:42:16;;;;;;;1999.90;999.90;;;28.60;99.90;;;;;;5053910;28;20487;-85
2021/08/14 07:44:44;;;;;;;1999.90;999.90;;;28.50;99.90;;;;;;5054632;28;20448;-85
2021/08/14 07:47:10;;;;;;;1999.90;999.90;;;28.30;99.90;;;;;;5053839;28;20484;-85
2021/08/14 07:49:37;;;;;;;1999.90;999.90;;;28.20;99.90;;;;;;5053900;28;20444;-85
2021/08/14 07:52:04;;;;;;;1999.90;999.90;;;28.10;99.90;;;;;;5053995;28;20536;-85
2021/08/14 07:54:31;;;;;;;1999.90;999.90;;;28.00;99.90;;;;;;5054092;28;20486;-85
2021/08/14 07:56:57;;;;;;;1999.90;999.90;;;27.90;99.90;;;;;;5054140;28;20483;-85
2021/08/14 07:59:24;;;;;;;1999.90;999.90;;;27.80;99.90;;;;;;5054570;28;20482;-86
2021/08/14 08:01:52;;;;;;;1999.90;999.90;;;27.70;99.90;;;;;;5053993;28;20543;-85
2021/08/14 08:04:19;;;;;;;1999.90;999.90;;;27.60;99.90;;;;;;5054086;28;20460;-85
2021/08/14 08:06:45;;;;;;;1999.90;999.90;;;27.60;99.90;;;;;;5053349;28;20843;-85
2021/08/14 08:09:12;;;;;;;1999.90;999.90;;;27.70;99.90;;;;;;5053653;28;20449;-85
2021/08/14 08:11:39;;;;;;;1999.90;999.90;;;27.70;99.90;;;;;;5053392;28;20467;-84
2021/08/14 08:14:05;;;;;;;1999.90;999.90;;;27.60;99.90;;;;;;5053751;28;20448;-84
2021/08/14 08:16:32;;;;;;;1999.90;999.90;;;27.60;99.90;;;;;;5053471;28;20448;-85
2021/08/14 08:19:01;;;;;;;1999.90;999.90;;;27.60;99.90;;;;;;5053467;28;20487;-85
2021/08/14 08:21:27;;;;;;;1999.90;999.90;;;27.60;99.90;;;;;;5053324;28;20456;-85
2021/08/14 08:23:57;;;;;;;1999.90;999.90;;;27.40;99.90;;;;;;5053743;28;20491;-85
2021/08/14 08:26:24;;;;;;;1999.90;999.90;;;27.20;99.90;;;;;;5052872;28;20506;-85
2021/08/14 08:28:52;;;;;;;1999.90;999.90;;;26.90;99.90;;;;;;5052907;28;20448;-85
2021/08/14 08:31:18;;;;;;;1999.90;999.90;;;26.60;99.90;;;;;;5053330;28;20468;-85
2021/08/14 08:33:45;;;;;;;1999.90;999.90;;;26.50;99.90;;;;;;5052822;28;20444;-85
2021/08/14 08:36:13;;;;;;;1999.90;999.90;;;26.40;99.90;;;;;;5052843;28;21029;-85
2021/08/14 08:38:40;;;;;;;1999.90;999.90;;;26.30;99.90;;;;;;5053315;28;20453;-87
2021/08/14 08:41:07;;;;;;;1999.90;999.90;;;26.30;99.90;;;;;;5053447;28;20448;-87
2021/08/14 08:43:34;;;;;;;1999.90;999.90;;;26.20;99.90;;;;;;5053158;28;20548;-87
2021/08/14 08:46:01;;;;;;;1999.90;999.90;;;26.10;99.90;;;;;;5052875;28;20546;-87
2021/08/14 08:48:28;;;;;;;1999.90;999.90;;;26.20;99.90;;;;;;5053043;28;20457;-87
2021/08/14 08:50:56;;;;;;;1999.90;999.90;;;26.20;99.90;;;;;;5053072;28;20506;-86
2021/08/14 08:53:24;;;;;;;1999.90;999.90;;;26.10;99.90;;;;;;5052583;28;20973;-87
2021/08/14 08:55:51;;;;;;;1999.90;999.90;;;26.10;99.90;;;;;;5052570;28;20557;-86
2021/08/14 08:58:21;;;;;;;1999.90;999.90;;;26.20;99.90;;;;;;5053421;28;20951;-85
2021/08/14 09:00:47;;;;;;;1999.90;999.90;;;26.20;99.90;;;;;;5053184;28;20967;-87
2021/08/14 09:03:16;;;;;;;1999.90;999.90;;;26.10;99.90;;;;;;5052836;28;20452;-87
2021/08/14 09:05:47;;;;;;;1999.90;999.90;;;26.00;99.90;;;;;;5052934;28;20450;-86
2021/08/14 09:08:15;;;;;;;1999.90;999.90;;;25.90;99.90;;;;;;5052893;28;20517;-85
2021/08/14 09:10:43;;;;;;;1999.90;999.90;;;26.00;99.90;;;;;;5052534;28;20854;-85
2021/08/14 09:13:11;;;;;;;1999.90;999.90;;;26.00;99.90;;;;;;5052773;28;20498;-86
2021/08/14 09:15:38;;;;;;;1999.90;999.90;;;26.30;99.90;;;;;;5052315;28;20476;-84
2021/08/14 09:18:06;;;;;;;1999.90;999.90;;;26.50;99.90;;;;;;5052675;28;20456;-94
2021/08/14 09:20:43;;;;;;;1999.90;999.90;;;26.60;99.90;;;;;;5052941;28;20490;-84
2021/08/14 09:23:13;;;;;;;1999.90;999.90;;;26.60;99.90;;;;;;5044575;28;21021;-85
2021/08/14 09:25:41;;;;;;;1999.90;999.90;;;26.80;99.90;;;;;;5034526;28;20449;-84
2021/08/14 09:28:10;;;;;;;1999.90;999.90;;;27.00;99.90;;;;;;5051954;28;20525;-84
2021/08/14 09:30:49;;;;;;;1999.90;999.90;;;27.00;99.90;;;;;;5042824;28;20473;-84
2021/08/14 09:33:18;;;;;;;1999.90;999.90;;;27.00;99.90;;;;;;5046978;28;20498;-84
2021/08/14 09:35:46;;;;;;;1999.90;999.90;;;27.00;99.90;;;;;;5015474;28;20576;-84
2021/08/14 09:38:14;;;;;;;1999.90;999.90;;;27.10;99.90;;;;;;5026274;28;20856;-83
2021/08/14 09:40:42;;;;;;;1493.70;603.17;;;27.20;99.90;;;;;;5024643;28;21003;-85
2021/08/14 09:43:11;;;;;;;1840.57;978.03;;;27.30;99.90;;;;;;5022004;28;20478;-84
2021/08/14 09:45:38;;;;;;;1857.20;927.07;;;27.40;99.90;;;;;;5032345;28;20481;-84
2021/08/14 09:48:16;;;;;;;1862.00;943.37;;;27.30;99.90;;;;;;5020537;28;20523;-84
2021/08/14 09:50:43;;;;;;;1831.10;923.80;;;27.30;99.90;;;;;;5024935;28;20529;-83
2021/08/14 09:53:15;;;;;;;1609.93;999.90;;;27.40;99.90;;;;;;5029209;28;20449;-85
2021/08/14 09:55:41;;;;;;;1628.73;987.13;;;27.50;99.90;;;;;;5022431;28;20528;-84
2021/08/14 09:58:12;;;;;;;1845.17;931.73;;;27.50;99.90;;;;;;5020173;28;20511;-84
2021/08/14 10:00:40;;;;;;;1872.43;976.47;;;27.50;99.90;;;;;;5020209;28;20461;-83
2021/08/14 10:03:08;;;;;;;1514.03;974.80;;;27.60;99.90;;;;;;5028848;28;20450;-83
2021/08/14 10:05:35;;;;;;;1613.23;984.47;;;27.70;99.90;;;;;;5017122;28;20453;-84
2021/08/14 10:08:03;;;;;;;1502.00;999.90;;;27.90;99.90;;;;;;5029960;28;20481;-83
2021/08/14 10:10:30;;;;;;;1501.23;967.27;;;28.00;99.90;;;;;;5023563;28;20449;-86
2021/08/14 10:12:58;;;;;;;1536.33;999.90;;;28.00;99.90;;;;;;5021732;28;20442;-83
2021/08/14 10:15:26;;;;;;;1602.80;999.90;;;27.90;99.90;;;;;;5021596;28;20562;-85
2021/08/14 10:17:54;;;;;;;1862.00;999.90;;;27.70;99.90;;;;;;5018263;28;20481;-86
2021/08/14 10:20:22;;;;;;;1486.47;999.90;;;27.60;99.90;;;;;;5034943;28;20437;-86
2021/08/14 10:22:56;;;;;;;1537.67;903.83;;;27.70;99.90;;;;;;5033881;28;20449;-84
2021/08/14 10:25:24;;;;;;;1475.73;917.27;;;27.60;99.90;;;;;;5034618;28;20524;-83
2021/08/14 10:27:54;;;;;;;1822.87;998.10;;;27.40;99.90;;;;;;5031405;28;20520;-84
2021/08/14 10:30:42;;;;;;;1999.90;999.90;;;27.20;99.90;;;;;;5019784;28;20450;-83
2021/08/14 10:33:09;;;;;;;1999.90;999.90;;;27.00;99.90;;;;;;5018329;28;20546;-83
2021/08/14 10:35:38;;;;;;;1337.87;605.13;;;27.00;99.90;;;;;;5019038;28;20474;-83
2021/08/14 10:38:25;;;;;;;1999.90;999.90;;;27.00;99.90;;;;;;5033908;28;20477;-83
2021/08/14 10:40:59;;;;;;;1999.90;999.90;;;27.00;99.90;;;;;;5022181;28;20453;-83
2021/08/14 10:43:57;;;;;;;1999.90;999.90;;;26.80;99.90;;;;;;5030426;28;20453;-82
2021/08/14 10:46:45;;;;;;;1999.90;999.90;;;26.60;99.90;;;;;;5021806;28;20457;-83
2021/08/14 10:49:14;;;;;;;1999.90;999.90;;;26.40;99.90;;;;;;5019977;28;20929;-83
2021/08/14 10:52:15;;;;;;;1999.90;999.90;;;26.40;99.90;;;;;;5029725;28;20997;-83
2021/08/14 10:55:02;;;;;;;1999.90;999.90;;;26.40;99.90;;;;;;5024088;28;20449;-86
2021/08/14 10:57:38;;;;;;;1999.90;999.90;;;26.30;99.90;;;;;;5033714;28;20453;-83
2021/08/14 11:00:06;;;;;;;1999.90;999.90;;;26.30;99.90;;;;;;5019101;28;20798;-83
2021/08/14 11:02:35;;;;;;;1999.90;999.90;;;26.30;99.90;;;;;;5025074;28;20529;-83
2021/08/14 11:05:02;;;;;;;1999.90;999.90;;;26.40;99.90;;;;;;5017571;28;20485;-83
2021/08/14 11:07:32;;;;;;;1999.90;999.90;;;26.50;99.90;;;;;;5030055;28;20504;-83
2021/08/14 11:10:12;;;;;;;1999.90;999.90;;;26.60;99.90;;;;;;5017793;28;20452;-83
2021/08/14 11:12:40;;;;;;;1357.10;787.67;;;26.70;99.90;;;;;;5024102;28;20450;-82
2021/08/14 11:15:18;;;;;;;1437.07;999.90;;;26.90;99.90;;;;;;5019930;28;20509;-82
2021/08/14 11:17:47;;;;;;;1999.90;999.90;;;27.00;99.90;;;;;;5029978;28;20477;-83
2021/08/14 11:20:38;;;;;;;1443.50;999.90;;;27.10;99.90;;;;;;5020436;28;20445;-82
2021/08/14 11:23:22;;;;;;;1473.53;999.90;;;27.10;99.90;;;;;;5020252;28;20471;-86
2021/08/14 11:25:49;;;;;;;1426.67;999.90;;;27.00;99.90;;;;;;5030219;28;20454;-85
2021/08/14 11:28:25;;;;;;;1442.57;999.90;;;27.00;99.90;;;;;;5020029;28;20540;-83
2021/08/14 11:30:58;;;;;;;1453.37;999.90;;;27.00;99.90;;;;;;5021969;28;20840;-86
2021/08/14 11:33:27;;;;;;;1432.10;999.90;;;27.00;99.90;;;;;;5029353;28;20528;-82
2021/08/14 11:36:05;;;;;;;1433.57;999.90;;;27.10;99.90;;;;;;5030112;28;20498;-82
2021/08/14 11:38:37;;;;;;;1434.57;999.90;;;27.00;99.90;;;;;;5024206;28;20503;-82
2021/08/14 11:41:11;;;;;;;1394.03;999.90;;;27.00;99.90;;;;;;5032887;28;20469;-83
2021/08/14 11:43:40;;;;;;;1402.80;999.90;;;27.00;99.90;;;;;;5016793;28;20474;-83
2021/08/14 11:46:08;;;;;;;1382.10;999.90;;;26.80;99.90;;;;;;5027531;28;20454;-83
2021/08/14 11:48:40;;;;;;;1414.33;999.90;;;26.70;99.90;;;;;;5022535;28;20540;-85
2021/08/14 11:51:17;;;;;;;1454.30;999.90;;;26.60;99.90;;;;;;5019410;28;20960;-83
2021/08/14 11:53:44;;;;;;;1422.93;999.90;;;26.60;99.90;;;;;;5029294;28;20444;-83
2021/08/14 11:56:12;;;;;;;1523.13;999.90;;;26.50;99.90;;;;;;5013758;28;20830;-83
2021/08/14 11:58:40;;;;;;;1828.37;996.97;;;26.50;99.90;;;;;;5023594;28;20488;-83
2021/08/14 12:01:07;;;;;;;1485.03;957.47;;;26.50;99.90;;;;;;5019757;28;20516;-84
2021/08/14 12:03:36;;;;;;;1828.70;986.33;;;26.60;99.90;;;;;;5029382;28;20453;-84
2021/08/14 12:06:12;;;;;;;1504.97;999.90;;;26.50;99.90;;;;;;5017652;28;20473;-83
2021/08/14 12:08:40;;;;;;;1447.97;999.90;;;26.50;99.90;;;;;;5023582;28;20481;-88
2021/08/14 12:11:08;;;;;;;1468.77;999.90;;;26.40;99.90;;;;;;5026340;28;20532;-82
2021/08/14 12:13:36;;;;;;;1413.77;999.90;;;26.30;99.90;;;;;;5030623;28;20453;-82
2021/08/14 12:16:13;;;;;;;1461.10;999.90;;;26.30;99.90;;;;;;5017856;28;20888;-82
2021/08/14 12:18:41;;;;;;;1410.53;999.90;;;26.40;99.90;;;;;;5012068;28;20454;-82